Time;durP1;ratioP1;P1;durP2;ratioP2;P2;SDS_P1;SDS_P2;PMS_P1;PMS_P2;Temp;Humidity;BMP_temperature;BMP_pressure;BME280_temperature;BME280_humidity;BME280_pressure;Samples;Min_cycle;Max_cycle;Signal;HPM_P1;HPM_P2
2022/06/15 00:01:44;;;;;;;10.90;5.60;;;20.00;54.30;;;;;;5070848;28;20200;-91
2022/06/15 00:04:15;;;;;;;15.93;6.63;;;20.00;54.30;;;;;;5071439;28;20210;-91
2022/06/15 00:06:43;;;;;;;8.73;4.83;;;20.00;54.50;;;;;;5071130;28;20206;-91
2022/06/15 00:09:13;;;;;;;7.10;4.53;;;19.90;54.50;;;;;;5071146;28;20206;-91
2022/06/15 00:11:44;;;;;;;7.37;4.37;;;19.90;54.50;;;;;;5059967;28;20715;-91
2022/06/15 00:14:17;;;;;;;14.30;5.90;;;19.80;54.50;;;;;;5059323;28;20234;-91
2022/06/15 00:16:47;;;;;;;8.50;4.53;;;19.80;54.80;;;;;;5070886;28;20203;-89
2022/06/15 00:19:21;;;;;;;14.90;6.37;;;19.80;54.90;;;;;;5071296;28;20206;-91
2022/06/15 00:21:49;;;;;;;9.27;4.97;;;19.70;55.20;;;;;;5071689;28;20206;-90
2022/06/15 00:24:18;;;;;;;13.23;5.37;;;19.70;54.90;;;;;;5056517;28;20196;-90
2022/06/15 00:26:46;;;;;;;11.37;5.20;;;19.70;55.00;;;;;;5070086;28;20230;-91
2022/06/15 00:29:13;;;;;;;13.23;6.37;;;19.70;55.10;;;;;;5067626;28;20245;-91
2022/06/15 00:31:43;;;;;;;7.73;4.73;;;19.60;55.10;;;;;;5061646;28;20207;-91
2022/06/15 00:34:12;;;;;;;10.73;5.73;;;19.60;55.30;;;;;;5066274;28;20276;-91
2022/06/15 00:36:40;;;;;;;13.60;5.37;;;19.60;55.30;;;;;;5069483;28;20219;-92
2022/06/15 00:39:09;;;;;;;6.40;3.97;;;19.50;55.20;;;;;;5065401;28;20204;-92
2022/06/15 00:41:39;;;;;;;14.23;5.90;;;19.50;55.90;;;;;;5062708;28;20268;-93
2022/06/15 00:44:32;;;;;;;7.73;4.77;;;19.40;55.50;;;;;;5072207;28;20212;-92
2022/06/15 00:47:04;;;;;;;11.53;5.83;;;19.40;56.10;;;;;;5071182;28;20211;-92
2022/06/15 00:49:37;;;;;;;13.00;6.77;;;19.40;55.60;;;;;;5055163;28;20207;-92
2022/06/15 00:52:09;;;;;;;17.53;7.13;;;19.40;55.90;;;;;;5071044;28;20203;-91
2022/06/15 00:54:38;;;;;;;9.73;5.50;;;19.30;55.80;;;;;;5069529;28;20235;-92
2022/06/15 00:57:06;;;;;;;12.10;5.97;;;19.30;55.80;;;;;;5068594;28;20678;-92
2022/06/15 00:59:36;;;;;;;17.67;7.10;;;19.30;55.80;;;;;;5069246;28;20204;-92
2022/06/15 01:02:04;;;;;;;11.70;5.87;;;19.30;56.00;;;;;;5068750;28;20211;-92
2022/06/15 01:04:39;;;;;;;12.23;5.97;;;19.20;55.90;;;;;;5069100;28;20261;-92
2022/06/15 01:07:19;;;;;;;25.13;9.23;;;19.20;56.10;;;;;;5068718;28;20207;-93
2022/06/15 01:09:54;;;;;;;20.27;8.27;;;19.20;56.30;;;;;;5067856;28;20679;-93
2022/06/15 01:12:29;;;;;;;21.63;8.47;;;19.20;56.40;;;;;;5055396;28;20264;-93
2022/06/15 01:15:23;;;;;;;11.60;5.83;;;19.10;56.50;;;;;;5069770;28;20226;-93
2022/06/15 01:18:05;;;;;;;8.60;5.60;;;19.10;56.90;;;;;;5060171;28;20643;-92
2022/06/15 01:20:53;;;;;;;11.30;5.90;;;19.10;56.70;;;;;;5070288;28;20209;-93
2022/06/15 01:23:44;;;;;;;12.63;6.50;;;19.00;56.90;;;;;;5067098;28;20232;-92
2022/06/15 01:26:39;;;;;;;9.30;5.43;;;19.00;56.70;;;;;;5064543;28;20241;-93
2022/06/15 01:29:20;;;;;;;8.30;5.20;;;18.90;56.90;;;;;;5058315;28;20241;-92
2022/06/15 01:31:55;;;;;;;11.80;5.97;;;18.90;56.70;;;;;;5066619;28;20199;-92
2022/06/15 01:34:29;;;;;;;13.30;5.97;;;18.90;56.80;;;;;;5068783;28;20227;-92
2022/06/15 01:37:13;;;;;;;14.30;6.80;;;18.90;56.90;;;;;;5072773;28;20282;-92
2022/06/15 01:39:47;;;;;;;16.27;7.20;;;18.90;57.10;;;;;;5085503;28;20203;-93
2022/06/15 01:42:21;;;;;;;11.60;6.07;;;18.80;56.80;;;;;;5087124;28;20207;-92
2022/06/15 01:44:53;;;;;;;19.57;7.70;;;18.80;56.90;;;;;;5081786;28;20222;-93
2022/06/15 01:47:25;;;;;;;14.80;6.87;;;18.70;56.80;;;;;;5059154;28;20212;-92
2022/06/15 01:49:57;;;;;;;12.70;6.87;;;18.70;57.00;;;;;;5072878;28;20199;-92
2022/06/15 01:52:29;;;;;;;11.27;6.03;;;18.70;57.20;;;;;;5071288;28;20207;-93
2022/06/15 01:55:04;;;;;;;12.33;6.13;;;18.60;57.20;;;;;;5069687;28;20222;-91
2022/06/15 01:57:35;;;;;;;15.77;6.73;;;18.60;57.30;;;;;;5066955;28;20205;-92
2022/06/15 02:00:07;;;;;;;11.60;6.47;;;18.60;57.20;;;;;;5067848;28;20259;-92
2022/06/15 02:02:47;;;;;;;11.97;6.43;;;18.60;57.50;;;;;;5072281;28;20218;-93
2022/06/15 02:05:19;;;;;;;17.67;7.57;;;18.50;57.50;;;;;;5076609;28;20216;-92
2022/06/15 02:07:54;;;;;;;13.67;6.97;;;18.50;57.30;;;;;;5087613;28;20179;-92
2022/06/15 02:10:26;;;;;;;13.53;6.37;;;18.40;57.60;;;;;;5060327;28;20209;-93
2022/06/15 02:13:00;;;;;;;13.83;6.73;;;18.40;57.60;;;;;;5058806;28;20213;-92
2022/06/15 02:15:33;;;;;;;11.53;5.97;;;18.40;57.60;;;;;;5074059;28;20288;-92
2022/06/15 02:18:10;;;;;;;8.30;5.77;;;18.40;57.60;;;;;;5059274;28;20203;-93
2022/06/15 02:20:45;;;;;;;16.53;7.67;;;18.30;57.90;;;;;;5069457;28;20259;-92
2022/06/15 02:23:14;;;;;;;13.63;6.80;;;18.30;58.00;;;;;;5071275;28;20236;-93
2022/06/15 02:25:50;;;;;;;10.27;5.97;;;18.30;57.80;;;;;;5051846;28;20236;-92
2022/06/15 02:28:19;;;;;;;11.37;6.83;;;18.30;58.50;;;;;;5057575;28;20223;-93
2022/06/15 02:30:50;;;;;;;11.77;6.53;;;18.20;57.80;;;;;;5056908;28;20569;-93
2022/06/15 02:33:27;;;;;;;12.77;7.07;;;18.20;58.10;;;;;;5070450;28;20247;-92
2022/06/15 02:35:54;;;;;;;9.80;6.37;;;18.10;58.30;;;;;;5069359;28;20237;-92
2022/06/15 02:38:24;;;;;;;12.10;6.83;;;18.10;58.00;;;;;;5069000;28;20276;-93
2022/06/15 02:40:57;;;;;;;13.87;7.40;;;18.10;58.10;;;;;;5070589;28;20237;-93
2022/06/15 02:43:27;;;;;;;11.40;6.50;;;18.10;58.50;;;;;;5071208;28;20203;-93
2022/06/15 02:45:56;;;;;;;11.87;7.23;;;18.00;58.40;;;;;;5069675;28;20207;-93
2022/06/15 02:48:27;;;;;;;13.97;7.33;;;18.00;58.40;;;;;;5069536;28;20725;-93
2022/06/15 02:51:00;;;;;;;11.50;7.03;;;18.00;58.50;;;;;;5058198;28;20252;-92
2022/06/15 02:53:32;;;;;;;18.90;8.07;;;17.90;58.50;;;;;;5070370;28;20582;-93
2022/06/15 02:56:01;;;;;;;8.50;6.10;;;17.90;58.70;;;;;;5069282;28;20257;-93
2022/06/15 02:58:31;;;;;;;11.27;6.93;;;17.90;58.70;;;;;;5070714;28;20206;-93
2022/06/15 03:01:04;;;;;;;12.73;7.27;;;17.80;58.70;;;;;;5071498;28;20224;-93
2022/06/15 03:03:37;;;;;;;10.30;6.80;;;17.80;58.90;;;;;;5071411;28;20264;-93
2022/06/15 03:06:09;;;;;;;11.70;6.80;;;17.80;59.00;;;;;;5067285;28;20213;-94
2022/06/15 03:08:39;;;;;;;17.77;8.60;;;17.80;59.10;;;;;;5070641;28;20203;-93
2022/06/15 03:11:09;;;;;;;14.70;8.27;;;17.70;58.90;;;;;;5069333;28;20201;-93
2022/06/15 03:13:38;;;;;;;10.23;6.10;;;17.70;59.00;;;;;;5063466;28;20278;-93
2022/06/15 03:16:06;;;;;;;16.10;7.13;;;17.70;59.00;;;;;;5051632;28;20305;-93
2022/06/15 03:18:36;;;;;;;10.97;6.57;;;17.70;59.00;;;;;;5060142;28;20286;-92
2022/06/15 03:21:04;;;;;;;11.00;6.23;;;17.60;58.90;;;;;;5071640;28;20296;-93
2022/06/15 03:23:35;;;;;;;8.97;6.47;;;17.60;59.00;;;;;;5072131;28;20206;-92
2022/06/15 03:26:29;;;;;;;14.43;7.67;;;17.60;59.40;;;;;;5074911;28;20258;-94
2022/06/15 03:29:00;;;;;;;9.73;6.50;;;17.60;59.30;;;;;;5070421;28;20208;-93
2022/06/15 03:31:29;;;;;;;12.63;6.97;;;17.50;59.10;;;;;;5075592;28;20231;-93
2022/06/15 03:34:03;;;;;;;12.03;7.00;;;17.60;59.30;;;;;;5074906;28;20297;-93
2022/06/15 03:36:30;;;;;;;10.37;6.33;;;17.50;59.60;;;;;;5075558;28;20256;-92
2022/06/15 03:39:03;;;;;;;9.10;6.90;;;17.50;59.20;;;;;;5075886;28;20605;-93
2022/06/15 03:41:38;;;;;;;11.67;7.37;;;17.40;59.60;;;;;;5075869;28;20272;-93
2022/06/15 03:44:10;;;;;;;8.57;6.40;;;17.40;59.80;;;;;;5059731;28;20209;-93
2022/06/15 03:46:39;;;;;;;12.23;7.10;;;17.40;59.60;;;;;;5066960;28;20390;-93
2022/06/15 03:49:17;;;;;;;11.47;7.23;;;17.40;59.70;;;;;;5076960;28;20648;-93
2022/06/15 03:51:46;;;;;;;10.13;6.53;;;17.30;60.00;;;;;;5076409;28;20635;-93
2022/06/15 03:54:14;;;;;;;10.90;7.03;;;17.30;59.70;;;;;;5076590;28;20237;-93
2022/06/15 03:56:43;;;;;;;12.17;7.73;;;17.30;59.80;;;;;;5081348;28;20234;-93
2022/06/15 03:59:13;;;;;;;9.30;6.70;;;17.30;59.90;;;;;;5096769;28;20198;-93
2022/06/15 04:01:42;;;;;;;10.43;6.60;;;17.30;60.00;;;;;;5096144;28;20208;-93
2022/06/15 04:04:09;;;;;;;18.23;9.20;;;17.30;60.80;;;;;;5086304;28;20209;-93
2022/06/15 04:06:41;;;;;;;12.83;7.63;;;17.20;59.90;;;;;;5086210;28;20200;-93
2022/06/15 04:09:08;;;;;;;10.80;7.10;;;17.20;59.90;;;;;;5077562;28;20669;-94
2022/06/15 04:14:26;;;;;;;10.07;6.97;;;17.20;60.40;;;;;;5064295;28;20200;-93
2022/06/15 04:16:54;;;;;;;14.97;8.30;;;17.20;59.90;;;;;;5065999;28;20231;-94
2022/06/15 04:19:23;;;;;;;19.77;9.87;;;17.20;60.20;;;;;;5082018;28;20221;-93
2022/06/15 04:21:55;;;;;;;16.97;7.90;;;17.20;60.40;;;;;;5070307;28;20266;-93
2022/06/15 04:24:30;;;;;;;12.80;7.80;;;17.10;60.90;;;;;;5064496;28;20210;-94
2022/06/15 04:26:58;;;;;;;11.33;7.33;;;17.10;61.10;;;;;;5054442;28;20227;-93
2022/06/15 04:29:27;;;;;;;10.93;6.93;;;17.10;60.70;;;;;;5067413;28;20205;-94
2022/06/15 04:31:54;;;;;;;10.07;6.50;;;17.10;61.00;;;;;;5074299;28;20256;-94
2022/06/15 04:34:23;;;;;;;12.60;7.87;;;17.10;60.90;;;;;;5072896;28;20204;-93
2022/06/15 04:36:52;;;;;;;10.87;6.90;;;17.10;61.40;;;;;;5073938;28;20223;-94
2022/06/15 04:39:20;;;;;;;9.50;6.50;;;17.10;61.50;;;;;;5073195;28;20593;-94
2022/06/15 04:41:48;;;;;;;12.37;6.87;;;17.10;61.70;;;;;;5073827;28;20205;-93
2022/06/15 04:44:17;;;;;;;9.47;6.60;;;17.10;61.80;;;;;;5073201;28;20210;-93
2022/06/15 04:46:46;;;;;;;11.37;7.43;;;17.10;61.90;;;;;;5058370;28;20203;-93
2022/06/15 04:49:14;;;;;;;15.77;8.33;;;17.20;62.10;;;;;;5061812;28;20215;-94
2022/06/15 04:51:45;;;;;;;10.73;7.33;;;17.20;62.00;;;;;;5073750;28;20606;-93
2022/06/15 04:54:14;;;;;;;10.10;7.10;;;17.20;62.20;;;;;;5071645;28;20195;-94
2022/06/15 04:56:44;;;;;;;14.10;8.17;;;17.20;62.00;;;;;;5073195;28;20274;-93
2022/06/15 04:59:12;;;;;;;10.50;6.60;;;17.30;62.40;;;;;;5073024;28;20204;-93
2022/06/15 05:01:39;;;;;;;12.67;6.87;;;17.40;61.90;;;;;;5059805;28;20196;-94
2022/06/15 05:04:10;;;;;;;13.87;7.73;;;17.40;61.70;;;;;;5072813;28;20214;-93
2022/06/15 05:06:41;;;;;;;10.77;7.23;;;17.40;62.10;;;;;;5074548;28;20203;-91
2022/06/15 05:09:11;;;;;;;15.03;7.87;;;17.40;62.10;;;;;;5072457;28;20205;-92
2022/06/15 05:11:39;;;;;;;18.93;8.60;;;17.50;62.50;;;;;;5061952;28;20279;-91
2022/06/15 05:14:08;;;;;;;13.80;7.47;;;17.50;62.50;;;;;;5079238;28;20202;-91
2022/06/15 05:16:35;;;;;;;12.67;7.40;;;17.60;62.90;;;;;;5087295;28;20226;-92
2022/06/15 05:19:03;;;;;;;16.27;6.77;;;17.60;62.70;;;;;;5077009;28;20643;-92
2022/06/15 05:21:30;;;;;;;12.33;6.60;;;17.70;62.50;;;;;;5074278;28;20260;-92
2022/06/15 05:23:58;;;;;;;11.27;6.50;;;17.70;62.60;;;;;;5074308;28;20221;-91
2022/06/15 05:26:30;;;;;;;11.40;6.50;;;17.80;62.70;;;;;;5074024;28;20627;-93
2022/06/15 05:28:59;;;;;;;13.70;7.20;;;17.80;62.90;;;;;;5071875;28;20230;-91
2022/06/15 05:31:27;;;;;;;13.00;6.50;;;17.90;63.60;;;;;;5072489;28;20224;-90
2022/06/15 05:33:57;;;;;;;15.27;6.70;;;18.00;63.00;;;;;;5071952;28;20255;-91
2022/06/15 05:36:27;;;;;;;10.50;6.60;;;17.90;62.70;;;;;;5072312;28;20253;-92
2022/06/15 05:38:54;;;;;;;13.37;6.57;;;18.00;62.70;;;;;;5067844;28;20206;-92
2022/06/15 05:41:22;;;;;;;16.07;7.93;;;18.10;62.60;;;;;;5071253;28;20210;-91
2022/06/15 05:43:49;;;;;;;15.13;7.17;;;18.10;62.40;;;;;;5069130;28;20198;-91
2022/06/15 05:46:22;;;;;;;19.83;8.53;;;18.20;62.50;;;;;;5069560;28;20209;-92
2022/06/15 05:48:55;;;;;;;11.23;6.43;;;18.30;62.80;;;;;;5051667;28;20206;-94
2022/06/15 05:51:29;;;;;;;12.30;6.33;;;18.30;62.70;;;;;;5069471;28;20241;-93
2022/06/15 05:53:57;;;;;;;12.03;6.53;;;18.40;62.90;;;;;;5058742;28;20741;-92
2022/06/15 05:56:25;;;;;;;14.07;6.93;;;18.50;62.70;;;;;;5053972;28;20245;-93
2022/06/15 05:58:52;;;;;;;14.83;7.20;;;18.50;62.70;;;;;;5055816;28;20725;-93
2022/06/15 06:01:24;;;;;;;26.30;10.13;;;18.60;62.70;;;;;;5051757;28;20203;-92
2022/06/15 06:03:53;;;;;;;14.70;6.90;;;18.60;63.00;;;;;;5067290;28;20643;-92
2022/06/15 06:06:20;;;;;;;17.37;6.30;;;18.70;62.70;;;;;;5067251;28;20199;-93
2022/06/15 06:08:48;;;;;;;12.17;6.07;;;18.80;62.60;;;;;;5063954;28;20713;-94
2022/06/15 06:11:16;;;;;;;15.63;7.53;;;18.80;62.30;;;;;;5068284;28;20210;-94
2022/06/15 06:13:44;;;;;;;13.07;6.20;;;18.90;62.40;;;;;;5052343;28;20235;-93
2022/06/15 06:16:14;;;;;;;23.37;8.93;;;19.00;62.40;;;;;;5049776;28;20994;-92
2022/06/15 06:18:43;;;;;;;10.00;5.93;;;19.00;62.40;;;;;;5071777;28;20207;-94
2022/06/15 06:21:15;;;;;;;11.30;5.53;;;19.10;62.00;;;;;;5070732;28;20273;-94
2022/06/15 06:23:46;;;;;;;13.13;6.77;;;19.20;62.10;;;;;;5067870;28;20211;-92
2022/06/15 06:26:19;;;;;;;12.10;5.50;;;19.30;62.20;;;;;;5071761;28;20200;-93
2022/06/15 06:28:48;;;;;;;8.47;4.93;;;19.40;62.20;;;;;;5071515;28;20214;-94
2022/06/15 06:31:20;;;;;;;16.17;6.17;;;19.40;61.80;;;;;;5070375;28;20202;-92
2022/06/15 06:33:48;;;;;;;7.43;4.60;;;19.50;61.70;;;;;;5051553;28;20203;-93
2022/06/15 06:36:29;;;;;;;10.50;4.97;;;19.60;61.50;;;;;;5055130;28;20223;-94
2022/06/15 06:38:56;;;;;;;11.67;4.83;;;19.70;61.70;;;;;;5071558;28;20203;-95
2022/06/15 06:41:32;;;;;;;12.10;5.17;;;19.70;60.90;;;;;;5068678;28;20208;-93
2022/06/15 06:44:03;;;;;;;7.27;3.97;;;19.90;61.00;;;;;;5066836;28;20211;-94
2022/06/15 06:46:37;;;;;;;11.27;5.30;;;19.90;60.30;;;;;;5072134;28;20203;-94
2022/06/15 06:49:08;;;;;;;7.37;4.67;;;20.00;60.20;;;;;;5068663;28;20267;-93
2022/06/15 06:51:39;;;;;;;11.97;5.57;;;20.10;60.30;;;;;;5065209;28;20731;-93
2022/06/15 06:54:07;;;;;;;12.03;5.83;;;20.20;60.30;;;;;;5056611;28;20355;-93
2022/06/15 06:56:36;;;;;;;14.33;6.20;;;20.20;60.60;;;;;;5062871;28;20302;-94
2022/06/15 06:59:05;;;;;;;8.07;4.77;;;20.30;60.00;;;;;;5065434;28;20204;-94
2022/06/15 07:01:33;;;;;;;10.03;4.87;;;20.40;60.00;;;;;;5066056;28;20196;-93
2022/06/15 07:04:06;;;;;;;9.77;5.50;;;20.50;59.90;;;;;;5069856;28;20631;-96
2022/06/15 07:06:38;;;;;;;9.30;4.77;;;20.60;59.90;;;;;;5072205;28;20204;-96
2022/06/15 07:09:06;;;;;;;10.00;4.43;;;20.60;59.70;;;;;;5068941;28;20210;-96
2022/06/15 07:11:34;;;;;;;11.23;5.87;;;20.70;59.70;;;;;;5071064;28;20195;-95
2022/06/15 07:14:02;;;;;;;14.57;5.93;;;20.80;59.80;;;;;;5063494;28;20208;-93
2022/06/15 07:16:29;;;;;;;12.30;5.23;;;20.80;59.70;;;;;;5064710;28;20574;-96
2022/06/15 07:18:56;;;;;;;10.67;5.13;;;20.90;59.60;;;;;;5063307;28;20196;-95
2022/06/15 07:21:26;;;;;;;10.50;4.30;;;21.00;59.60;;;;;;5063796;28;20293;-94
2022/06/15 07:23:58;;;;;;;10.77;4.93;;;21.10;59.60;;;;;;5064507;28;20224;-95
2022/06/15 07:26:27;;;;;;;14.57;6.07;;;21.20;59.60;;;;;;5061657;28;20277;-95
2022/06/15 07:28:54;;;;;;;11.77;5.13;;;21.20;59.50;;;;;;5061486;28;20272;-96
2022/06/15 07:31:26;;;;;;;14.00;6.13;;;21.30;59.40;;;;;;5064315;28;20203;-95
2022/06/15 07:33:56;;;;;;;8.47;3.63;;;21.40;59.10;;;;;;5066706;28;20244;-96
2022/06/15 07:36:25;;;;;;;15.53;5.53;;;21.50;59.10;;;;;;5062716;28;20219;-96
2022/06/15 07:38:54;;;;;;;6.80;3.97;;;21.60;59.10;;;;;;5064479;28;20200;-92
2022/06/15 07:41:27;;;;;;;10.90;4.57;;;21.70;58.70;;;;;;5066135;28;20719;-94
2022/06/15 07:43:57;;;;;;;13.00;5.17;;;21.70;57.70;;;;;;5062509;28;20200;-96
2022/06/15 07:46:27;;;;;;;7.27;4.20;;;21.80;57.90;;;;;;5067413;28;20241;-96
2022/06/15 07:51:45;;;;;;;10.57;5.00;;;22.00;57.30;;;;;;5069099;28;20254;-95
2022/06/15 07:54:20;;;;;;;11.27;5.00;;;22.20;56.70;;;;;;5077114;28;20293;-96
2022/06/15 07:57:16;;;;;;;12.83;5.30;;;22.20;56.70;;;;;;5074493;28;20238;-96
2022/06/15 07:59:44;;;;;;;7.20;4.03;;;22.30;56.60;;;;;;5068443;28;20611;-95
2022/06/15 08:02:18;;;;;;;11.80;4.90;;;22.50;57.00;;;;;;5074756;28;20204;-94
2022/06/15 08:04:45;;;;;;;7.87;3.73;;;22.50;56.60;;;;;;5075220;28;20237;-93
2022/06/15 08:07:21;;;;;;;12.67;5.73;;;22.70;56.30;;;;;;5072178;28;20752;-94
2022/06/15 08:09:58;;;;;;;9.57;4.70;;;22.80;55.80;;;;;;5066625;28;20293;-94
2022/06/15 08:12:27;;;;;;;9.83;4.20;;;22.90;55.80;;;;;;5072881;28;20202;-93
2022/06/15 08:14:58;;;;;;;9.40;4.27;;;23.00;55.50;;;;;;5072483;28;20556;-93
2022/06/15 08:17:46;;;;;;;12.00;5.30;;;23.10;54.60;;;;;;5074284;28;20236;-93
2022/06/15 08:20:18;;;;;;;9.57;4.20;;;23.20;53.80;;;;;;5073102;28;20231;-91
2022/06/15 08:22:54;;;;;;;7.27;4.10;;;23.30;54.60;;;;;;5073884;28;20201;-95
2022/06/15 08:25:28;;;;;;;12.80;4.70;;;23.40;54.00;;;;;;5073736;28;20268;-94
2022/06/15 08:27:57;;;;;;;10.23;4.57;;;23.40;53.30;;;;;;5073909;28;20203;-93
2022/06/15 08:30:34;;;;;;;9.30;4.27;;;23.60;53.40;;;;;;5074323;28;20204;-94
2022/06/15 08:33:02;;;;;;;10.20;4.70;;;23.60;53.80;;;;;;5073589;28;20207;-93
2022/06/15 08:35:30;;;;;;;9.97;4.53;;;23.80;53.70;;;;;;5073531;28;20663;-94
2022/06/15 08:37:58;;;;;;;10.60;3.80;;;23.90;54.30;;;;;;5075230;28;20223;-95
2022/06/15 08:40:30;;;;;;;11.93;4.93;;;24.10;53.30;;;;;;5070529;28;20218;-94
2022/06/15 08:43:13;;;;;;;11.87;4.40;;;24.20;52.60;;;;;;5076753;28;20199;-92
2022/06/15 08:45:53;;;;;;;13.03;5.90;;;24.40;51.90;;;;;;5093279;28;20183;-94
2022/06/15 08:48:38;;;;;;;10.03;4.27;;;24.60;51.90;;;;;;5084616;28;20203;-95
2022/06/15 08:51:28;;;;;;;8.43;4.03;;;24.80;51.60;;;;;;5077226;28;20295;-95
2022/06/15 08:54:01;;;;;;;8.90;4.20;;;25.00;51.20;;;;;;5074659;28;20206;-94
2022/06/15 08:56:40;;;;;;;8.57;3.97;;;25.20;51.70;;;;;;5073590;28;20268;-95
2022/06/15 08:59:33;;;;;;;7.97;3.47;;;25.40;50.90;;;;;;5076175;28;20656;-94
2022/06/15 09:02:34;;;;;;;6.67;2.70;;;25.60;49.60;;;;;;5074006;28;20315;-95
2022/06/15 09:05:13;;;;;;;6.17;2.83;;;25.80;50.10;;;;;;5070253;28;20199;-95
2022/06/15 09:08:00;;;;;;;9.07;3.50;;;26.00;48.50;;;;;;5074010;28;20670;-94
2022/06/15 09:10:43;;;;;;;10.70;4.87;;;26.20;47.50;;;;;;5085515;28;20206;-93
2022/06/15 09:13:38;;;;;;;6.80;3.67;;;26.40;47.10;;;;;;5083020;28;20226;-95
2022/06/15 09:19:57;;;;;;;8.37;4.53;;;26.70;46.50;;;;;;5079521;28;20608;-96
2022/06/15 09:22:32;;;;;;;6.30;3.23;;;26.90;45.40;;;;;;5081135;28;20215;-94
2022/06/15 09:25:05;;;;;;;8.00;3.37;;;27.00;47.10;;;;;;5074696;28;20223;-96
2022/06/15 09:30:27;;;;;;;6.73;3.50;;;27.30;46.60;;;;;;5104964;22;20267;-93
2022/06/15 09:33:00;;;;;;;7.93;3.80;;;27.50;46.70;;;;;;5071863;28;20195;-96
2022/06/15 09:35:35;;;;;;;10.40;4.43;;;27.60;46.30;;;;;;5064938;28;20295;-93
2022/06/15 09:38:09;;;;;;;5.17;3.13;;;27.70;45.30;;;;;;5060939;28;20242;-93
2022/06/15 09:40:42;;;;;;;10.87;4.50;;;27.80;45.50;;;;;;5065760;28;20196;-96
2022/06/15 09:43:17;;;;;;;7.63;3.43;;;28.00;46.40;;;;;;5056059;28;20203;-95
2022/06/15 09:45:52;;;;;;;9.73;3.10;;;28.10;46.10;;;;;;5051787;28;20797;-95
2022/06/15 09:48:27;;;;;;;5.17;3.00;;;28.20;45.00;;;;;;5062971;28;20184;-94
2022/06/15 09:51:09;;;;;;;8.23;4.30;;;28.30;44.00;;;;;;5050084;28;20203;-96
2022/06/15 09:53:50;;;;;;;7.53;3.70;;;28.50;43.70;;;;;;5043605;28;20299;-94
2022/06/15 09:59:33;;;;;;;5.63;2.83;;;28.70;45.00;;;;;;5087791;22;20864;-95
2022/06/15 10:02:04;;;;;;;6.73;3.53;;;28.80;44.40;;;;;;5071843;28;20199;-94
2022/06/15 10:08:01;;;;;;;6.40;3.20;;;29.10;44.00;;;;;;5099784;22;20242;-95
2022/06/15 10:10:35;;;;;;;8.43;3.13;;;29.20;43.80;;;;;;5093206;28;20220;-96
2022/06/15 10:13:07;;;;;;;11.47;3.50;;;29.30;44.00;;;;;;5093883;28;20304;-96
2022/06/15 10:15:56;;;;;;;7.37;3.93;;;29.50;43.30;;;;;;5094773;28;20195;-93
2022/06/15 10:18:33;;;;;;;6.53;2.57;;;29.60;42.50;;;;;;5102501;28;20319;-95
2022/06/15 10:21:09;;;;;;;3.97;2.20;;;29.60;42.10;;;;;;5095811;28;20202;-94
2022/06/15 10:23:55;;;;;;;8.30;3.70;;;29.80;42.50;;;;;;5097328;28;20245;-95
2022/06/15 10:26:41;;;;;;;11.27;4.00;;;29.80;41.30;;;;;;5077309;28;20210;-95
2022/06/15 10:29:37;;;;;;;10.60;2.80;;;30.00;42.10;;;;;;5093151;28;20229;-96
2022/06/15 10:35:08;;;;;;;8.13;3.70;;;30.20;42.30;;;;;;5111236;22;20252;-94
2022/06/15 10:37:40;;;;;;;7.50;3.60;;;30.20;41.40;;;;;;5091739;28;20231;-94
2022/06/15 10:40:32;;;;;;;4.43;2.75;;;30.30;42.30;;;;;;5092246;28;20214;-96
2022/06/15 10:43:07;;;;;;;7.65;2.92;;;30.40;42.00;;;;;;5073859;22;20687;-94
2022/06/15 10:45:58;;;;;;;7.32;3.47;;;30.50;41.00;;;;;;5054353;28;20207;-95
2022/06/15 10:48:32;;;;;;;5.72;2.90;;;30.60;39.70;;;;;;5053272;28;20437;-93
2022/06/15 10:51:05;;;;;;;4.68;1.92;;;30.70;40.50;;;;;;5054008;28;20227;-95
2022/06/15 10:54:10;;;;;;;12.75;4.30;;;30.70;40.20;;;;;;5056123;28;20235;-92
2022/06/15 11:02:24;;;;;;;9.63;3.03;;;31.00;39.10;;;;;;5053188;28;20241;-96
2022/06/15 11:04:59;;;;;;;7.78;3.22;;;31.10;39.30;;;;;;5035995;28;21057;-94
2022/06/15 11:07:37;;;;;;;8.15;3.10;;;31.10;39.10;;;;;;5053430;28;20218;-95
2022/06/15 11:10:13;;;;;;;10.43;3.67;;;31.20;39.20;;;;;;5050433;28;20199;-96
2022/06/15 11:13:05;;;;;;;7.28;3.17;;;31.20;39.60;;;;;;5041646;28;20226;-96
2022/06/15 11:18:36;;;;;;;6.85;3.10;;;31.40;38.90;;;;;;5105759;22;20276;-96
2022/06/15 11:21:09;;;;;;;5.88;2.17;;;31.40;38.60;;;;;;5095599;28;20230;-95
2022/06/15 11:26:54;;;;;;;6.32;3.15;;;31.60;37.70;;;;;;5107303;28;20216;-95
2022/06/15 11:29:53;;;;;;;8.43;3.42;;;31.70;37.30;;;;;;5079261;28;20259;-96
2022/06/15 11:32:44;;;;;;;4.85;2.42;;;31.80;37.30;;;;;;5073126;28;20279;-96
2022/06/15 11:35:24;;;;;;;6.82;2.90;;;31.80;37.20;;;;;;5073174;28;20203;-95
2022/06/15 11:37:57;;;;;;;11.73;3.05;;;31.90;36.90;;;;;;5072247;28;20227;-94
2022/06/15 11:40:41;;;;;;;7.50;3.60;;;31.90;38.00;;;;;;5071563;28;20199;-96
2022/06/15 11:44:08;;;;;;;9.50;3.85;;;32.00;36.80;;;;;;5085055;28;20290;-95
2022/06/15 11:47:23;;;;;;;6.13;2.95;;;32.10;36.60;;;;;;5083542;28;20198;-96
2022/06/15 11:52:55;;;;;;;4.35;2.15;;;32.30;35.30;;;;;;5094532;28;20671;-96
2022/06/15 11:55:38;;;;;;;5.15;2.40;;;32.40;35.10;;;;;;5095571;28;20795;-96
2022/06/15 11:58:24;;;;;;;7.18;3.22;;;32.40;33.90;;;;;;5094653;28;20763;-96
2022/06/15 12:01:01;;;;;;;5.35;2.88;;;32.50;33.90;;;;;;5096184;28;20228;-96
2022/06/15 12:04:00;;;;;;;6.35;3.00;;;32.50;34.80;;;;;;5091209;28;20524;-96
2022/06/15 12:06:29;;;;;;;5.10;2.45;;;32.60;33.40;;;;;;5090700;28;20207;-95
2022/06/15 12:09:05;;;;;;;6.68;3.10;;;32.70;34.70;;;;;;5077769;28;20696;-96
2022/06/15 12:14:47;;;;;;;8.63;4.07;;;32.80;34.20;;;;;;5104179;28;20244;-95
2022/06/15 12:17:23;;;;;;;9.13;4.43;;;32.90;34.30;;;;;;5098975;28;20222;-95
2022/06/15 12:20:03;;;;;;;7.43;3.60;;;32.90;34.30;;;;;;5098051;28;20685;-95
2022/06/15 12:22:39;;;;;;;9.10;3.10;;;33.00;33.80;;;;;;5094961;28;20537;-95
2022/06/15 12:25:19;;;;;;;28.17;7.35;;;33.00;33.70;;;;;;5096987;28;20191;-94
2022/06/15 12:30:31;;;;;;;6.03;3.53;;;33.10;33.80;;;;;;5059616;28;20211;-92
2022/06/15 12:33:28;;;;;;;6.95;2.97;;;33.10;32.60;;;;;;5066727;28;20207;-95
2022/06/15 12:36:13;;;;;;;8.80;4.05;;;33.20;33.30;;;;;;5067555;28;20231;-95
2022/06/15 12:45:07;;;;;;;9.05;3.22;;;33.30;33.30;;;;;;5042069;28;20239;-95
2022/06/15 12:47:37;;;;;;;6.85;3.58;;;33.30;31.60;;;;;;5042174;28;20208;-96
2022/06/15 12:50:37;;;;;;;7.60;3.28;;;33.40;32.90;;;;;;5035122;28;20660;-95
2022/06/15 12:53:27;;;;;;;6.60;2.67;;;33.50;31.30;;;;;;5036752;28;20208;-96
2022/06/15 12:56:08;;;;;;;8.75;3.28;;;33.50;31.60;;;;;;5039010;28;20247;-93
2022/06/15 12:59:06;;;;;;;7.53;3.92;;;33.60;32.20;;;;;;5031446;28;20742;-96
2022/06/15 13:02:03;;;;;;;6.55;3.17;;;33.60;33.40;;;;;;5016369;28;20189;-96
2022/06/15 13:04:40;;;;;;;11.75;4.43;;;33.50;34.80;;;;;;5011005;28;20653;-90
2022/06/15 13:07:23;;;;;;;12.32;5.38;;;33.60;35.60;;;;;;5010970;28;20228;-93
2022/06/15 13:10:34;;;;;;;11.55;4.40;;;33.70;37.10;;;;;;5038499;28;20234;-95
2022/06/15 13:13:23;;;;;;;10.68;3.95;;;33.70;36.50;;;;;;5088497;22;20227;-94
2022/06/15 13:37:58;;;;;;;11.25;4.07;;;33.90;37.30;;;;;;5045085;28;20256;-96
2022/06/15 13:43:26;;;;;;;8.90;3.88;;;33.80;37.20;;;;;;5120331;23;20313;-91
2022/06/15 13:46:05;;;;;;;8.52;4.10;;;33.80;37.00;;;;;;5050576;28;20706;-91
2022/06/15 13:48:44;;;;;;;6.28;3.78;;;33.80;36.70;;;;;;5051763;28;20196;-94
2022/06/15 13:54:29;;;;;;;8.32;4.30;;;33.70;36.80;;;;;;5030747;28;20282;-96
2022/06/15 13:57:33;;;;;;;6.65;3.90;;;33.60;37.10;;;;;;5033337;28;20197;-96
2022/06/15 14:03:29;;;;;;;6.80;3.63;;;33.40;37.00;;;;;;5036507;28;20295;-95
2022/06/15 14:06:24;;;;;;;10.27;4.15;;;33.40;37.50;;;;;;5040249;28;20649;-94
2022/06/15 14:09:16;;;;;;;6.32;3.35;;;33.40;37.80;;;;;;5037097;28;20201;-96
2022/06/15 14:12:35;;;;;;;8.75;3.97;;;33.40;37.90;;;;;;5034122;28;20669;-94
2022/06/15 14:15:35;;;;;;;8.85;3.47;;;33.30;37.60;;;;;;4977146;28;20251;-96
2022/06/15 14:18:49;;;;;;;8.65;4.63;;;33.40;37.90;;;;;;4972042;28;20226;-95
2022/06/15 14:21:20;;;;;;;17.95;8.52;;;33.40;37.00;;;;;;4911711;22;20209;-94
2022/06/15 14:27:08;;;;;;;10.93;3.88;;;33.50;37.10;;;;;;5030483;28;20239;-96
2022/06/15 14:29:39;;;;;;;10.38;5.18;;;33.50;37.10;;;;;;5030162;28;20201;-94
2022/06/15 14:32:26;;;;;;;8.38;4.18;;;33.50;37.00;;;;;;5032696;28;20225;-95
2022/06/15 14:35:02;;;;;;;4.75;2.75;;;33.50;36.30;;;;;;5037581;28;20216;-96
2022/06/15 14:37:31;;;;;;;6.85;3.15;;;33.50;36.90;;;;;;5030527;28;20239;-94
2022/06/15 14:39:58;;;;;;;7.85;4.13;;;33.40;36.50;;;;;;5033718;28;20236;-93
2022/06/15 14:45:16;;;;;;;15.27;6.47;;;33.20;36.40;;;;;;4995195;28;20744;-95
2022/06/15 14:47:55;;;;;;;7.88;3.70;;;33.20;36.90;;;;;;5015600;28;20197;-95